»·PEaware :: N850VJ KMRY-KLAS

N850VJ :: KMRY-KLAS

FLIGHT INFORMATION

Flight Status: Arrived
Operator: Privately registered:
United States
More flights under this callsign
Pilot: Andrew J. (13363)
Aircraft: SOCATA TBM-900
(TBM9)
More flights by this aircraft type
Origin: KMRY Monterey Peninsula
United States
Destination: KLAS McCarran Intl
United States
More flights between these airports :: More routes between these airports
Route: +MRY4 SNS NTELL Q162 HYDEN LAS
File this flight plan on PilotEdge
Remarks:
Altitude:
(Current/Filed)
31,000ft
Speed:
(Current/Filed)
315kts
Departed: 11-Feb-18 11:01 AM
Arrived: 11-Feb-18 12:20 PM
Distance/Time
Traveled:
324nm/1:19
Distance/Time
To Go:
Arrived

Flight Plot

Page will automatically refresh every two minutes.

Flight plan parsing failed; only flown route is shown


Map Options




Map Legend


Flown Route
Filed Route
Departure Airport
Arrival Airport
Navaid (VOR, NDB)
Fix

Horizontal Profiles

Position Reports

Time Latitude Longitude Heading Altitude Ground
Speed
11-Feb-18 10:35 36.588875 -121.857300 176 165ft 0kts
11-Feb-18 10:36 36.588875 -121.857300 176 165ft 0kts
11-Feb-18 10:37 36.588875 -121.857300 176 165ft 0kts
11-Feb-18 10:38 36.588875 -121.857300 176 165ft 0kts
11-Feb-18 10:39 36.588875 -121.857300 176 165ft 0kts
11-Feb-18 10:40 36.588875 -121.857300 177 165ft 0kts
11-Feb-18 10:41 36.588875 -121.857300 176 165ft 0kts
11-Feb-18 10:42 36.588875 -121.857300 176 165ft 0kts
11-Feb-18 10:43 36.588875 -121.857300 176 165ft 0kts
11-Feb-18 10:43 36.588875 -121.857300 176 165ft 0kts
11-Feb-18 10:44 36.588875 -121.857300 176 165ft 0kts
11-Feb-18 10:46 36.588875 -121.857300 176 165ft 0kts
11-Feb-18 10:46 36.588875 -121.857300 176 165ft 0kts
11-Feb-18 10:47 36.588875 -121.857300 176 165ft 0kts
11-Feb-18 10:48 36.588875 -121.857300 176 165ft 0kts
11-Feb-18 10:50 36.588875 -121.857300 176 165ft 0kts
11-Feb-18 10:50 36.588875 -121.857300 176 165ft 0kts
11-Feb-18 10:51 36.588875 -121.857300 176 165ft 0kts
11-Feb-18 10:52 36.588875 -121.857300 176 165ft 0kts
11-Feb-18 10:53 36.588875 -121.857300 176 165ft 0kts
11-Feb-18 10:54 36.588875 -121.857300 176 165ft 0kts
11-Feb-18 10:55 36.588875 -121.857300 177 165ft 0kts
11-Feb-18 10:56 36.588875 -121.857300 176 165ft 0kts
11-Feb-18 10:57 36.588875 -121.857300 176 165ft 0kts
11-Feb-18 10:58 36.588862 -121.857299 176 165ft 0kts
11-Feb-18 10:59 36.589526 -121.855062 93 165ft 11kts
11-Feb-18 11:00 36.588793 -121.852177 112 165ft 10kts
11-Feb-18 11:02 36.586995 -121.846913 113 165ft 21kts
11-Feb-18 11:03 36.585192 -121.841944 111 165ft 8kts
11-Feb-18 11:04 36.584100 -121.838616 111 165ft 11kts
11-Feb-18 11:05 36.582828 -121.834826 91 165ft 0kts
11-Feb-18 11:06 36.582828 -121.834841 91 165ft 0kts
11-Feb-18 11:07 36.582838 -121.834254 84 165ft 6kts
11-Feb-18 11:08 36.586480 -121.843265 291 302ft 104kts
11-Feb-18 11:09 36.608495 -121.874547 339 2153ft 136kts
11-Feb-18 11:10 36.642760 -121.888663 337 4300ft 128kts
11-Feb-18 11:11 36.666081 -121.864412 88 6183ft 153kts
11-Feb-18 11:12 36.666716 -121.810860 87 8152ft 160kts
11-Feb-18 11:13 36.667387 -121.754726 83 9959ft 164kts
11-Feb-18 11:14 36.668449 -121.696291 82 11967ft 172kts
11-Feb-18 11:15 36.669688 -121.635147 81 13952ft 184kts
11-Feb-18 11:16 36.674705 -121.571506 71 15938ft 187kts
11-Feb-18 11:17 36.683076 -121.506875 70 17750ft 192kts
11-Feb-18 11:18 36.692009 -121.439612 69 18999ft 218kts
11-Feb-18 11:19 36.703487 -121.355047 71 19018ft 268kts
11-Feb-18 11:20 36.715489 -121.265725 73 19004ft 285kts
11-Feb-18 11:21 36.727836 -121.172465 70 20328ft 244kts
11-Feb-18 11:22 36.737769 -121.097495 67 22524ft 216kts
11-Feb-18 11:23 36.748125 -121.021879 66 24189ft 227kts
11-Feb-18 11:24 36.758830 -120.943688 66 25754ft 232kts
11-Feb-18 11:25 36.769864 -120.863116 66 27143ft 239kts
11-Feb-18 11:26 36.781098 -120.780880 65 28390ft 245kts
11-Feb-18 11:27 36.792688 -120.695873 65 29623ft 252kts
11-Feb-18 11:28 36.804434 -120.609412 66 30953ft 258kts
11-Feb-18 11:29 36.817705 -120.513021 68 31068ft 305kts
11-Feb-18 11:30 36.832399 -120.403797 69 31057ft 331kts
11-Feb-18 11:31 36.847369 -120.291160 70 31044ft 342kts
11-Feb-18 11:32 36.862441 -120.176819 70 31044ft 346kts
11-Feb-18 11:33 36.878018 -120.057938 70 31043ft 348kts
11-Feb-18 11:34 36.893398 -119.939844 70 31044ft 348kts
11-Feb-18 11:35 36.921348 -119.827446 56 31045ft 335kts
11-Feb-18 11:36 36.956291 -119.719750 56 31045ft 335kts
11-Feb-18 11:37 36.991167 -119.612112 56 31045ft 335kts
11-Feb-18 11:38 37.026043 -119.504261 56 31046ft 335kts
11-Feb-18 11:39 37.060911 -119.396172 56 31046ft 335kts
11-Feb-18 11:40 37.095216 -119.289561 57 31038ft 335kts
11-Feb-18 11:41 37.128663 -119.185330 57 31052ft 336kts
11-Feb-18 11:42 37.163208 -119.077341 57 31052ft 337kts
11-Feb-18 11:43 37.197822 -118.968770 57 31053ft 337kts
11-Feb-18 11:44 37.232311 -118.860210 57 31053ft 337kts
11-Feb-18 11:45 37.266948 -118.750793 57 31053ft 338kts
11-Feb-18 11:46 37.283681 -118.630974 73 31054ft 354kts
11-Feb-18 11:47 37.295285 -118.508248 73 31055ft 354kts
11-Feb-18 11:48 37.306695 -118.385268 73 31056ft 355kts
11-Feb-18 11:49 37.315607 -118.287740 74 31047ft 354kts
11-Feb-18 11:50 37.326675 -118.164670 74 31048ft 354kts
11-Feb-18 11:51 37.337498 -118.042669 74 31050ft 353kts
11-Feb-18 11:52 37.348253 -117.919697 74 31051ft 353kts
11-Feb-18 11:53 37.340738 -117.793467 88 31052ft 365kts
11-Feb-18 11:54 37.329901 -117.666694 89 31053ft 365kts
11-Feb-18 11:55 37.318707 -117.540446 89 31080ft 365kts
11-Feb-18 11:56 37.307297 -117.413880 89 31082ft 366kts
11-Feb-18 11:57 37.283811 -117.294777 120 31073ft 377kts
11-Feb-18 11:58 37.221184 -117.188637 125 31076ft 378kts
11-Feb-18 11:59 37.158093 -117.083801 126 31078ft 378kts
11-Feb-18 12:00 37.094822 -116.979385 126 31089ft 378kts
11-Feb-18 12:01 37.020233 -116.888067 141 31109ft 378kts
11-Feb-18 12:02 36.938829 -116.804608 141 30969ft 383kts
11-Feb-18 12:03 36.858364 -116.722714 141 29469ft 412kts
11-Feb-18 12:04 36.771737 -116.629417 135 27589ft 407kts
11-Feb-18 12:05 36.690333 -116.533667 135 25695ft 399kts
11-Feb-18 12:06 36.610052 -116.441029 144 23797ft 392kts
11-Feb-18 12:07 36.517963 -116.371821 148 21936ft 384kts
11-Feb-18 12:08 36.428313 -116.305269 149 20071ft 377kts
11-Feb-18 12:09 36.340649 -116.240375 149 18551ft 363kts
11-Feb-18 12:10 36.255466 -116.177466 149 16735ft 351kts
11-Feb-18 12:11 36.174846 -116.118049 149 15949ft 324kts
11-Feb-18 12:12 36.099560 -116.062676 149 15955ft 311kts
11-Feb-18 12:13 36.034558 -115.998529 100 15956ft 299kts
11-Feb-18 12:14 36.037936 -115.898361 81 15959ft 292kts
11-Feb-18 12:15 36.043594 -115.798446 81 15945ft 293kts
11-Feb-18 12:16 36.049415 -115.694518 82 14510ft 308kts
11-Feb-18 12:17 36.055254 -115.588893 84 13059ft 308kts
11-Feb-18 12:18 36.051300 -115.486594 91 11982ft 291kts
11-Feb-18 12:19 36.048505 -115.388819 91 10436ft 278kts
11-Feb-18 12:20 36.048134 -115.296261 75 8962ft 263kts
11-Feb-18 12:21 36.110626 -115.260481 20 8570ft 272kts
11-Feb-18 12:22 36.177926 -115.228783 21 7262ft 249kts
11-Feb-18 12:23 36.215571 -115.171224 91 5941ft 234kts
11-Feb-18 12:24 36.187134 -115.111470 173 4991ft 201kts
11-Feb-18 12:25 36.140524 -115.133219 202 3722ft 166kts
11-Feb-18 12:26 36.105680 -115.153038 203 2318ft 121kts
11-Feb-18 12:27 36.089257 -115.163055 277 2114ft 6kts
11-Feb-18 12:28 36.089594 -115.163995 296 2114ft 5kts
11-Feb-18 12:29 36.091000 -115.163707 26 2114ft 6kts
11-Feb-18 12:30 36.092644 -115.162825 24 2114ft 6kts
11-Feb-18 12:31 36.095145 -115.161389 26 2114ft 13kts
11-Feb-18 12:32 36.098399 -115.160942 334 2114ft 7kts
11-Feb-18 12:33 36.099390 -115.160342 87 2114ft 1kts
11-Feb-18 12:34 36.099390 -115.160337 89 2114ft 0kts
11-Feb-18 12:35 36.099390 -115.160337 89 2114ft 0kts
11-Feb-18 12:36 36.099390 -115.160337 89 2114ft 0kts
11-Feb-18 12:37 36.099390 -115.160337 89 2114ft 0kts
11-Feb-18 12:38 36.099390 -115.160337 89 2114ft 0kts
11-Feb-18 12:39 36.099390 -115.160337 89 2114ft 0kts
11-Feb-18 12:40 36.099390 -115.160337 89 2114ft 0kts
11-Feb-18 12:41 36.099390 -115.160337 89 2114ft 0kts
11-Feb-18 12:42 36.099390 -115.160337 89 2114ft 0kts

Navigation Log

Ident Type
Flight plan parsing failed, navigation log unavailable